Time;durP1;ratioP1;P1;durP2;ratioP2;P2;SDS_P1;SDS_P2;PMS_P1;PMS_P2;Temp;Humidity;BMP_temperature;BMP_pressure;BME280_temperature;BME280_humidity;BME280_pressure;Samples;Min_cycle;Max_cycle;Signal;HPM_P1;HPM_P2
2023/09/11 00:02:27;;;;;;;35.87;32.27;;;19.40;1.00;;;;;;5077240;28;20500;-75
2023/09/11 00:04:54;;;;;;;36.10;32.80;;;19.40;1.00;;;;;;5077979;28;20462;-71
2023/09/11 00:07:21;;;;;;;34.73;31.33;;;19.30;1.00;;;;;;5079094;28;20575;-70
2023/09/11 00:09:48;;;;;;;35.83;32.53;;;19.30;1.00;;;;;;5078761;28;20554;-70
2023/09/11 00:12:18;;;;;;;34.80;31.70;;;19.30;1.00;;;;;;5077251;28;21244;-70
2023/09/11 00:14:45;;;;;;;32.30;29.37;;;19.30;1.00;;;;;;5077789;28;20516;-71
2023/09/11 00:17:12;;;;;;;35.03;31.80;;;19.30;1.00;;;;;;5075515;28;22151;-71
2023/09/11 00:19:39;;;;;;;34.13;31.03;;;19.30;1.00;;;;;;5075669;28;21802;-71
2023/09/11 00:22:06;;;;;;;34.67;31.47;;;19.30;1.00;;;;;;5079678;28;21015;-71
2023/09/11 00:24:33;;;;;;;32.50;29.50;;;19.30;1.00;;;;;;5079012;28;20457;-69
2023/09/11 00:27:00;;;;;;;34.33;31.13;;;19.30;1.00;;;;;;5072715;28;20476;-72
2023/09/11 00:29:28;;;;;;;33.83;30.30;;;19.20;1.00;;;;;;5077554;28;20463;-69
2023/09/11 00:31:55;;;;;;;31.43;28.63;;;19.10;1.00;;;;;;5075266;28;20519;-71
2023/09/11 00:34:22;;;;;;;31.70;28.50;;;19.10;1.00;;;;;;5075920;28;20467;-70
2023/09/11 00:36:49;;;;;;;32.77;29.87;;;19.10;1.00;;;;;;5079108;28;20464;-70
2023/09/11 00:39:16;;;;;;;31.00;28.17;;;19.10;1.00;;;;;;5078246;28;20471;-71
2023/09/11 00:41:43;;;;;;;30.00;27.50;;;19.00;1.00;;;;;;5075731;28;20567;-70
2023/09/11 00:44:10;;;;;;;29.63;26.97;;;19.00;1.00;;;;;;5082701;28;20465;-70
2023/09/11 00:46:38;;;;;;;32.07;29.07;;;19.00;1.00;;;;;;5081421;28;20900;-68
2023/09/11 00:49:06;;;;;;;31.03;28.30;;;18.90;1.00;;;;;;5077355;28;20977;-70
2023/09/11 00:51:33;;;;;;;31.37;28.57;;;18.90;1.00;;;;;;5080602;28;20522;-69
2023/09/11 00:54:00;;;;;;;32.90;29.80;;;18.80;1.00;;;;;;5080657;28;20461;-70
2023/09/11 00:56:27;;;;;;;29.27;26.47;;;18.80;1.00;;;;;;5082317;28;20466;-70
2023/09/11 00:58:54;;;;;;;27.67;25.27;;;18.80;1.00;;;;;;5083561;28;21014;-70
2023/09/11 01:01:23;;;;;;;28.03;25.37;;;18.80;1.00;;;;;;5081613;28;20559;-70
2023/09/11 01:03:52;;;;;;;26.57;24.17;;;18.70;1.00;;;;;;5081619;28;20497;-71
2023/09/11 01:06:19;;;;;;;27.80;24.87;;;18.70;1.00;;;;;;5083737;28;20469;-69
2023/09/11 01:08:46;;;;;;;26.00;23.50;;;18.70;1.00;;;;;;5082682;28;20446;-70
2023/09/11 01:11:13;;;;;;;27.10;24.67;;;18.70;1.00;;;;;;5076197;28;20921;-71
2023/09/11 01:13:40;;;;;;;27.10;24.63;;;18.70;1.00;;;;;;5078388;28;20500;-70
2023/09/11 01:16:16;;;;;;;26.67;24.00;;;18.70;1.00;;;;;;5077415;28;20551;-70
2023/09/11 01:18:52;;;;;;;23.87;21.57;;;18.60;1.00;;;;;;5080969;28;20468;-72
2023/09/11 01:21:55;;;;;;;24.93;22.43;;;18.60;1.00;;;;;;5075643;28;20472;-71
2023/09/11 01:24:47;;;;;;;25.20;22.80;;;18.60;1.00;;;;;;5064945;28;21373;-72
2023/09/11 01:27:42;;;;;;;23.50;21.17;;;18.60;1.00;;;;;;5078848;28;20550;-70
2023/09/11 01:30:11;;;;;;;23.53;21.23;;;18.60;1.00;;;;;;5078335;28;20470;-70
2023/09/11 01:32:39;;;;;;;23.40;20.97;;;18.50;1.00;;;;;;5083495;28;20996;-69
2023/09/11 01:35:07;;;;;;;22.83;20.67;;;18.50;1.00;;;;;;5078994;28;20441;-72
2023/09/11 01:37:34;;;;;;;23.60;21.50;;;18.50;1.00;;;;;;5080219;27;21809;-69
2023/09/11 01:40:01;;;;;;;24.20;22.10;;;18.50;1.00;;;;;;5080525;28;21075;-73
2023/09/11 01:42:34;;;;;;;24.33;21.80;;;18.50;1.00;;;;;;5079138;28;20487;-74
2023/09/11 01:45:04;;;;;;;23.23;21.13;;;18.40;1.00;;;;;;5079374;28;20473;-74
2023/09/11 01:47:34;;;;;;;22.77;20.67;;;18.40;1.00;;;;;;5078855;28;20554;-73
2023/09/11 01:50:03;;;;;;;22.77;20.33;;;18.40;1.00;;;;;;5083564;28;20460;-73
2023/09/11 01:52:32;;;;;;;23.87;21.47;;;18.30;1.00;;;;;;5077744;28;20907;-74
2023/09/11 01:54:59;;;;;;;23.03;20.87;;;18.30;1.00;;;;;;5084076;28;20464;-73
2023/09/11 01:57:27;;;;;;;22.60;20.43;;;18.30;1.00;;;;;;5074808;28;20460;-73
2023/09/11 01:59:54;;;;;;;24.33;21.07;;;18.20;1.00;;;;;;5080376;28;20545;-74
2023/09/11 02:02:21;;;;;;;23.10;20.90;;;18.20;1.00;;;;;;5078868;28;20469;-73
2023/09/11 02:04:49;;;;;;;27.37;24.67;;;18.20;1.00;;;;;;5075760;28;20504;-73
2023/09/11 02:07:16;;;;;;;22.73;20.57;;;18.20;1.00;;;;;;5076936;28;20495;-74
2023/09/11 02:09:43;;;;;;;22.30;20.20;;;18.10;1.00;;;;;;5080557;28;20544;-73
2023/09/11 02:12:10;;;;;;;22.37;20.27;;;18.10;1.00;;;;;;5078619;28;20492;-73
2023/09/11 02:14:37;;;;;;;23.40;21.33;;;18.10;1.00;;;;;;5082617;28;20967;-73
2023/09/11 02:17:04;;;;;;;25.20;21.90;;;18.10;1.00;;;;;;5077328;28;20484;-73
2023/09/11 02:19:32;;;;;;;23.33;21.30;;;18.10;1.00;;;;;;5082767;28;20845;-74
2023/09/11 02:22:01;;;;;;;25.20;22.40;;;18.00;1.00;;;;;;5079994;28;23320;-74
2023/09/11 02:24:28;;;;;;;21.33;19.40;;;18.00;1.00;;;;;;5081466;28;20469;-73
2023/09/11 02:26:56;;;;;;;22.73;20.73;;;18.00;1.00;;;;;;5077994;28;20496;-74
2023/09/11 02:29:23;;;;;;;21.33;19.40;;;18.00;1.00;;;;;;5077960;28;20456;-74
2023/09/11 02:31:50;;;;;;;23.80;21.40;;;18.00;1.00;;;;;;5078687;28;20467;-74
2023/09/11 02:34:17;;;;;;;23.70;21.60;;;17.90;1.00;;;;;;5079467;28;20455;-73
2023/09/11 02:36:43;;;;;;;23.10;20.90;;;17.90;1.00;;;;;;5076130;28;20491;-72
2023/09/11 02:39:12;;;;;;;21.60;19.33;;;17.90;1.00;;;;;;5076147;28;20515;-74
2023/09/11 02:41:39;;;;;;;24.17;22.07;;;17.90;1.00;;;;;;5080540;28;20968;-75
2023/09/11 02:44:06;;;;;;;22.13;20.23;;;17.80;1.00;;;;;;5074929;28;21062;-74
2023/09/11 02:46:33;;;;;;;22.07;20.17;;;17.90;1.00;;;;;;5078288;28;20981;-75
2023/09/11 02:49:00;;;;;;;23.97;21.70;;;17.80;1.00;;;;;;5079404;28;20879;-75
2023/09/11 02:51:28;;;;;;;22.83;20.50;;;17.80;1.00;;;;;;5075305;28;20563;-73
2023/09/11 02:53:55;;;;;;;22.80;20.77;;;17.80;1.00;;;;;;5073562;28;20462;-74
2023/09/11 02:56:23;;;;;;;22.97;20.77;;;17.80;1.00;;;;;;5077831;28;20490;-73
2023/09/11 02:58:50;;;;;;;23.00;20.70;;;17.70;1.00;;;;;;5081742;28;21218;-74
2023/09/11 03:01:18;;;;;;;22.13;20.03;;;17.70;1.00;;;;;;5075917;28;20553;-73
2023/09/11 03:03:46;;;;;;;23.37;21.27;;;17.70;1.00;;;;;;5084246;28;20446;-74
2023/09/11 03:06:13;;;;;;;24.57;22.27;;;17.60;1.00;;;;;;5077801;28;21011;-74
2023/09/11 03:08:39;;;;;;;24.83;22.37;;;17.60;1.00;;;;;;5074787;28;20454;-74
2023/09/11 03:11:07;;;;;;;22.70;20.40;;;17.60;1.00;;;;;;5078008;28;20579;-73
2023/09/11 03:13:36;;;;;;;23.40;21.10;;;17.60;1.00;;;;;;5078833;28;20890;-72
2023/09/11 03:16:10;;;;;;;24.53;21.93;;;17.50;1.00;;;;;;5069942;28;20567;-73
2023/09/11 03:18:37;;;;;;;24.00;21.80;;;17.50;1.00;;;;;;5078101;28;20944;-72
2023/09/11 03:21:04;;;;;;;24.63;22.33;;;17.50;1.00;;;;;;5078567;28;20473;-72
2023/09/11 03:23:31;;;;;;;23.97;21.57;;;17.50;1.00;;;;;;5077207;28;20464;-73
2023/09/11 03:25:58;;;;;;;23.10;20.80;;;17.50;1.00;;;;;;5077437;28;20625;-72
2023/09/11 03:28:27;;;;;;;24.80;22.40;;;17.40;1.00;;;;;;5079080;28;20482;-75
2023/09/11 03:30:56;;;;;;;24.77;22.40;;;17.40;1.00;;;;;;5075733;28;20614;-75
2023/09/11 03:33:23;;;;;;;23.70;21.40;;;17.40;1.00;;;;;;5078925;28;20520;-75
2023/09/11 03:35:51;;;;;;;26.20;23.37;;;17.40;1.00;;;;;;5077107;28;21409;-74
2023/09/11 03:38:18;;;;;;;22.03;20.00;;;17.30;1.00;;;;;;5078426;28;20525;-76
2023/09/11 03:40:47;;;;;;;26.13;23.53;;;17.40;1.00;;;;;;5075995;28;20495;-74
2023/09/11 03:43:13;;;;;;;37.83;30.03;;;17.30;1.00;;;;;;5075536;28;20449;-73
2023/09/11 03:45:40;;;;;;;31.93;22.27;;;17.20;1.00;;;;;;5079367;28;21044;-74
2023/09/11 03:48:09;;;;;;;29.80;23.03;;;17.30;1.00;;;;;;5075203;28;20459;-75
2023/09/11 03:50:37;;;;;;;33.47;21.03;;;17.30;1.00;;;;;;5077105;28;21083;-72
2023/09/11 03:53:04;;;;;;;22.30;20.13;;;17.20;1.00;;;;;;5079118;28;20546;-76
2023/09/11 03:55:31;;;;;;;22.97;20.80;;;17.20;1.00;;;;;;5078681;28;20560;-74
2023/09/11 03:57:59;;;;;;;23.10;21.00;;;17.30;1.00;;;;;;5060501;28;20482;-74
2023/09/11 04:00:26;;;;;;;26.90;24.57;;;17.20;1.00;;;;;;5075904;28;21093;-74
2023/09/11 04:02:53;;;;;;;22.97;21.03;;;17.30;1.00;;;;;;5074496;28;20463;-72
2023/09/11 04:05:22;;;;;;;23.83;21.83;;;17.30;1.00;;;;;;5070550;28;20463;-68
2023/09/11 04:07:49;;;;;;;22.60;20.70;;;17.30;1.00;;;;;;5075534;28;21044;-68
2023/09/11 04:10:16;;;;;;;24.50;22.17;;;17.20;1.00;;;;;;5073237;28;20455;-69
2023/09/11 04:12:43;;;;;;;24.33;22.13;;;17.30;1.00;;;;;;5073759;28;20562;-69
2023/09/11 04:15:10;;;;;;;25.60;23.20;;;17.20;1.00;;;;;;5076410;28;20461;-69
2023/09/11 04:17:37;;;;;;;23.37;21.03;;;17.30;1.00;;;;;;5073257;28;20555;-69
2023/09/11 04:20:06;;;;;;;24.00;21.63;;;17.20;1.00;;;;;;5077496;28;20503;-70
2023/09/11 04:22:34;;;;;;;23.23;20.87;;;17.30;1.00;;;;;;5085780;28;20461;-72
2023/09/11 04:25:01;;;;;;;23.23;20.93;;;17.30;1.00;;;;;;5081449;28;20462;-71
2023/09/11 04:27:28;;;;;;;24.17;21.83;;;17.20;1.00;;;;;;5082229;28;20900;-71
2023/09/11 04:29:56;;;;;;;23.60;21.50;;;17.20;1.00;;;;;;5083999;28;20558;-70
2023/09/11 04:32:23;;;;;;;24.60;22.07;;;17.20;1.00;;;;;;5086409;28;20455;-69
2023/09/11 04:34:50;;;;;;;25.10;22.57;;;17.20;1.00;;;;;;5080482;28;20474;-73
2023/09/11 04:37:18;;;;;;;24.10;21.70;;;17.10;1.00;;;;;;5079531;28;20578;-69
2023/09/11 04:39:47;;;;;;;23.90;21.63;;;17.10;1.00;;;;;;5086238;28;21005;-70
2023/09/11 04:42:14;;;;;;;23.17;21.07;;;17.20;1.00;;;;;;5083129;28;20961;-72
2023/09/11 04:44:42;;;;;;;23.90;21.60;;;17.20;1.00;;;;;;5075954;28;20593;-70
2023/09/11 04:47:09;;;;;;;25.60;23.10;;;17.20;1.00;;;;;;5079686;28;20470;-71
2023/09/11 04:49:36;;;;;;;23.03;21.03;;;17.20;1.00;;;;;;5082383;28;21267;-71
2023/09/11 04:52:03;;;;;;;22.97;20.80;;;17.20;1.00;;;;;;5078351;28;21736;-71
2023/09/11 04:54:30;;;;;;;24.03;21.80;;;17.10;1.00;;;;;;5077808;28;20533;-67
2023/09/11 04:56:58;;;;;;;43.43;39.20;;;17.20;1.00;;;;;;5078645;28;20506;-73
2023/09/11 04:59:25;;;;;;;23.53;21.40;;;17.10;1.00;;;;;;5079657;28;22785;-68
2023/09/11 05:01:52;;;;;;;25.03;22.27;;;17.20;1.00;;;;;;5078351;28;20525;-68
2023/09/11 05:04:19;;;;;;;22.53;20.50;;;17.20;1.00;;;;;;5078585;28;20469;-69
2023/09/11 05:06:46;;;;;;;23.20;21.10;;;17.20;1.00;;;;;;5080647;28;20541;-69
2023/09/11 05:09:13;;;;;;;23.67;21.43;;;17.20;1.00;;;;;;5074663;28;20689;-71
2023/09/11 05:11:40;;;;;;;22.73;20.63;;;17.20;1.00;;;;;;5079413;28;23679;-68
2023/09/11 05:14:08;;;;;;;27.63;24.83;;;17.30;1.00;;;;;;5082051;28;20536;-69
2023/09/11 05:16:35;;;;;;;22.73;20.63;;;17.30;1.00;;;;;;5076128;28;21046;-69
2023/09/11 05:19:02;;;;;;;24.37;21.97;;;17.40;1.00;;;;;;5074275;28;20475;-72
2023/09/11 05:21:30;;;;;;;25.33;22.80;;;17.50;1.00;;;;;;5083895;28;20454;-71
2023/09/11 05:23:57;;;;;;;22.40;20.13;;;17.50;1.00;;;;;;5077207;28;20495;-69
2023/09/11 05:26:24;;;;;;;24.30;21.70;;;17.60;1.00;;;;;;5078379;28;20536;-69
2023/09/11 05:28:51;;;;;;;26.03;23.50;;;17.70;1.00;;;;;;5078011;28;20473;-70
2023/09/11 05:31:19;;;;;;;23.63;21.63;;;17.70;1.00;;;;;;5077054;28;20452;-69
2023/09/11 05:33:46;;;;;;;22.13;20.30;;;17.80;1.00;;;;;;5082114;28;20538;-68
2023/09/11 05:36:14;;;;;;;24.10;21.93;;;17.90;1.00;;;;;;5078538;28;20475;-68
2023/09/11 05:38:41;;;;;;;25.67;22.73;;;17.90;1.00;;;;;;5080180;28;20486;-69
2023/09/11 05:41:08;;;;;;;23.53;21.27;;;18.00;1.00;;;;;;5078286;28;20455;-69
2023/09/11 05:43:36;;;;;;;23.93;21.90;;;18.00;1.00;;;;;;5076653;28;20460;-70
2023/09/11 05:46:03;;;;;;;23.77;21.60;;;18.10;1.00;;;;;;5076014;28;20468;-70
2023/09/11 05:48:32;;;;;;;24.90;22.60;;;18.20;1.00;;;;;;5079289;28;21020;-71
2023/09/11 05:51:00;;;;;;;28.33;25.43;;;18.30;1.00;;;;;;5080873;28;20534;-72
2023/09/11 05:53:28;;;;;;;26.47;23.93;;;18.40;1.00;;;;;;5075993;28;20460;-69
2023/09/11 05:55:55;;;;;;;25.70;23.10;;;18.40;1.00;;;;;;5079767;28;20493;-73
2023/09/11 05:58:22;;;;;;;25.00;22.60;;;18.50;1.00;;;;;;5077896;28;20456;-71
2023/09/11 06:00:51;;;;;;;30.20;27.60;;;18.60;1.00;;;;;;5073948;28;20461;-72
2023/09/11 06:03:18;;;;;;;24.70;22.47;;;18.70;1.00;;;;;;5076825;28;20548;-66
2023/09/11 06:05:46;;;;;;;25.97;23.67;;;18.80;1.00;;;;;;5055836;28;20846;-71
2023/09/11 06:08:15;;;;;;;24.97;22.30;;;18.90;1.00;;;;;;5069733;28;20470;-73
2023/09/11 06:10:42;;;;;;;24.70;22.20;;;18.90;1.00;;;;;;5078744;28;20468;-73
2023/09/11 06:13:08;;;;;;;162.00;150.37;;;19.00;1.00;;;;;;5078907;28;20612;-70
2023/09/11 06:15:36;;;;;;;26.20;23.57;;;19.10;1.00;;;;;;5076726;28;20566;-68
2023/09/11 06:18:04;;;;;;;25.17;23.03;;;19.20;1.00;;;;;;5074636;28;20490;-71
2023/09/11 06:20:31;;;;;;;25.17;22.77;;;19.30;1.00;;;;;;5082930;28;20479;-70
2023/09/11 06:23:00;;;;;;;24.53;22.23;;;19.30;1.00;;;;;;5076344;28;20467;-78
2023/09/11 06:25:27;;;;;;;25.03;22.43;;;19.40;1.00;;;;;;5077089;28;20461;-74
2023/09/11 06:27:56;;;;;;;24.23;22.27;;;19.40;1.00;;;;;;5076404;28;20544;-74
2023/09/11 06:30:23;;;;;;;25.40;23.07;;;19.50;1.00;;;;;;5075271;28;20627;-75
2023/09/11 06:32:50;;;;;;;26.37;23.90;;;19.60;1.00;;;;;;5082019;28;20924;-76
2023/09/11 06:35:18;;;;;;;26.73;24.30;;;19.80;1.00;;;;;;5080912;28;20546;-74
2023/09/11 06:37:47;;;;;;;27.17;24.50;;;19.90;1.00;;;;;;5082389;28;20477;-74
2023/09/11 06:40:16;;;;;;;26.17;23.60;;;20.00;1.00;;;;;;5083346;28;20459;-78
2023/09/11 06:42:43;;;;;;;26.80;24.27;;;20.20;1.00;;;;;;5078377;28;20503;-73
2023/09/11 06:45:10;;;;;;;28.80;26.00;;;20.30;1.00;;;;;;5078011;28;21053;-74
2023/09/11 06:47:37;;;;;;;26.67;24.37;;;20.40;1.00;;;;;;5077317;28;22564;-79
2023/09/11 06:50:05;;;;;;;28.67;25.67;;;20.60;1.00;;;;;;5067561;28;20708;-78
2023/09/11 06:52:38;;;;;;;28.73;26.07;;;20.70;1.00;;;;;;5081306;28;20482;-74
2023/09/11 06:55:06;;;;;;;29.37;26.67;;;20.90;1.00;;;;;;5073009;28;20567;-76
2023/09/11 06:57:34;;;;;;;29.03;26.43;;;21.00;1.00;;;;;;5081099;28;20481;-75
2023/09/11 07:00:08;;;;;;;28.43;25.80;;;21.20;1.00;;;;;;5078997;28;20610;-73
2023/09/11 07:02:35;;;;;;;28.20;25.40;;;21.20;1.00;;;;;;5077021;28;20481;-74
2023/09/11 07:05:04;;;;;;;28.63;26.13;;;21.30;1.00;;;;;;5081884;28;20563;-75
2023/09/11 07:07:31;;;;;;;30.97;25.87;;;21.50;1.00;;;;;;5081184;28;20510;-76
2023/09/11 07:09:58;;;;;;;27.53;24.90;;;21.60;1.00;;;;;;5080289;28;20983;-73
2023/09/11 07:12:25;;;;;;;25.53;22.97;;;21.70;1.00;;;;;;5078531;28;20454;-75
2023/09/11 07:14:56;;;;;;;27.13;24.47;;;21.70;1.00;;;;;;5081395;28;20502;-79
2023/09/11 07:17:23;;;;;;;23.77;21.37;;;21.90;1.00;;;;;;5079961;28;20879;-79
2023/09/11 07:19:50;;;;;;;24.17;21.80;;;22.10;1.00;;;;;;5081662;28;20898;-76
2023/09/11 07:22:17;;;;;;;23.40;21.13;;;22.20;1.00;;;;;;5081752;28;20547;-78
2023/09/11 07:24:44;;;;;;;28.40;23.17;;;22.40;1.00;;;;;;5079242;28;20485;-75
2023/09/11 07:27:11;;;;;;;25.20;20.33;;;22.50;1.00;;;;;;5079732;28;22065;-74
2023/09/11 07:29:38;;;;;;;22.17;20.00;;;22.80;1.00;;;;;;5064965;28;20460;-78
2023/09/11 07:32:08;;;;;;;22.57;20.40;;;23.00;1.00;;;;;;5079932;28;20991;-68
2023/09/11 07:34:35;;;;;;;22.50;19.73;;;23.10;1.00;;;;;;5079243;28;20456;-71
2023/09/11 07:37:03;;;;;;;21.90;19.63;;;23.30;1.00;;;;;;5080620;28;20545;-68
2023/09/11 07:39:30;;;;;;;23.70;21.50;;;23.40;1.00;;;;;;5078347;28;21025;-72
2023/09/11 07:41:57;;;;;;;23.87;21.27;;;23.60;1.00;;;;;;5076698;28;20975;-69
2023/09/11 07:44:24;;;;;;;21.20;18.63;;;23.60;1.00;;;;;;5081035;28;20543;-69
2023/09/11 07:46:51;;;;;;;21.53;19.40;;;23.70;1.00;;;;;;5080122;28;20490;-69
2023/09/11 07:49:19;;;;;;;21.07;18.67;;;23.80;1.00;;;;;;5079008;28;22641;-72
2023/09/11 07:51:47;;;;;;;19.13;17.40;;;24.00;1.00;;;;;;5081075;28;21020;-68
2023/09/11 07:54:14;;;;;;;22.00;18.37;;;24.20;1.00;;;;;;5077977;28;20573;-72
2023/09/11 07:56:42;;;;;;;20.30;16.90;;;24.20;1.00;;;;;;5071414;28;20560;-69
2023/09/11 07:59:09;;;;;;;18.87;16.97;;;24.30;1.00;;;;;;5077080;28;20468;-70
2023/09/11 08:01:37;;;;;;;20.27;17.93;;;24.40;1.00;;;;;;5078618;28;20460;-70
2023/09/11 08:04:04;;;;;;;27.00;24.70;;;24.60;1.00;;;;;;5074008;28;21033;-71
2023/09/11 08:06:33;;;;;;;17.20;15.43;;;24.70;1.00;;;;;;5081408;28;21001;-70
2023/09/11 08:09:03;;;;;;;18.13;16.20;;;24.90;1.00;;;;;;5075257;28;20571;-68
2023/09/11 08:11:31;;;;;;;15.70;14.47;;;25.00;1.00;;;;;;5077900;28;20471;-69
2023/09/11 08:13:58;;;;;;;14.83;13.30;;;25.20;1.00;;;;;;5081842;28;20547;-70
2023/09/11 08:16:25;;;;;;;15.50;14.00;;;25.30;1.00;;;;;;5079400;28;20990;-70
2023/09/11 08:18:52;;;;;;;14.60;13.20;;;25.40;1.00;;;;;;5078357;28;20555;-70
2023/09/11 08:21:20;;;;;;;15.53;13.90;;;25.50;1.00;;;;;;5086146;28;20905;-71
2023/09/11 08:23:48;;;;;;;19.40;12.67;;;25.60;1.00;;;;;;5081212;28;20534;-69
2023/09/11 08:26:15;;;;;;;15.33;14.20;;;25.80;1.00;;;;;;5080064;28;21020;-69
2023/09/11 08:28:42;;;;;;;16.13;12.60;;;25.90;1.00;;;;;;5078281;28;20936;-72
2023/09/11 08:31:09;;;;;;;13.40;12.17;;;26.10;1.00;;;;;;5079269;28;20476;-69
2023/09/11 08:33:36;;;;;;;13.73;12.50;;;26.20;1.00;;;;;;5081597;28;20448;-73
2023/09/11 08:36:04;;;;;;;19.37;12.57;;;26.30;1.00;;;;;;5085167;28;20828;-71
2023/09/11 08:38:31;;;;;;;15.30;11.93;;;26.40;1.00;;;;;;5083615;28;21317;-71
2023/09/11 08:41:00;;;;;;;14.40;13.10;;;26.50;1.00;;;;;;5081175;27;20522;-70
2023/09/11 08:43:27;;;;;;;13.03;11.80;;;26.60;1.00;;;;;;5087817;28;20488;-75
2023/09/11 08:45:55;;;;;;;12.63;11.40;;;26.80;1.00;;;;;;5084350;28;20596;-74
2023/09/11 08:48:28;;;;;;;12.10;10.90;;;27.00;1.00;;;;;;5074827;28;21019;-74
2023/09/11 08:51:01;;;;;;;12.20;11.03;;;27.00;1.00;;;;;;5081593;28;20566;-74
2023/09/11 08:53:32;;;;;;;11.20;10.00;;;27.10;1.00;;;;;;5079411;28;21175;-74
2023/09/11 08:56:01;;;;;;;12.70;10.40;;;27.20;1.00;;;;;;5080020;28;20544;-75
2023/09/11 08:58:30;;;;;;;12.20;11.00;;;27.30;1.00;;;;;;5084888;28;20458;-75
2023/09/11 09:01:00;;;;;;;12.13;11.13;;;27.40;1.00;;;;;;5081830;28;20469;-74
2023/09/11 09:03:29;;;;;;;14.13;11.40;;;27.40;1.00;;;;;;5080486;28;20561;-74
2023/09/11 09:05:58;;;;;;;11.17;10.27;;;27.50;1.00;;;;;;5078707;28;20981;-74
2023/09/11 09:08:26;;;;;;;13.70;12.50;;;27.60;1.00;;;;;;5076723;28;20962;-74
2023/09/11 09:10:53;;;;;;;13.50;12.23;;;27.80;1.00;;;;;;5080119;28;21813;-72
2023/09/11 09:13:22;;;;;;;13.00;11.80;;;28.10;1.00;;;;;;5085846;28;20480;-74
2023/09/11 09:15:49;;;;;;;12.40;11.40;;;28.40;1.00;;;;;;5080777;28;20491;-75
2023/09/11 09:18:16;;;;;;;11.13;10.23;;;29.00;1.00;;;;;;5080572;28;20864;-75
2023/09/11 09:20:43;;;;;;;10.53;9.73;;;30.20;1.00;;;;;;5080752;28;22069;-75
2023/09/11 09:23:11;;;;;;;11.87;10.97;;;31.40;1.00;;;;;;5079331;28;20469;-75
2023/09/11 09:25:39;;;;;;;9.40;8.70;;;32.70;1.00;;;;;;5077265;28;20916;-74
2023/09/11 09:28:06;;;;;;;10.90;9.90;;;34.00;1.00;;;;;;5077807;28;20545;-75
2023/09/11 09:30:37;;;;;;;11.03;10.03;;;35.20;1.00;;;;;;5084926;28;20459;-75
2023/09/11 09:33:04;;;;;;;10.17;9.37;;;36.10;1.00;;;;;;5078357;28;20946;-73
2023/09/11 09:35:32;;;;;;;10.27;9.47;;;37.00;1.00;;;;;;5077118;28;20498;-73
2023/09/11 09:38:00;;;;;;;9.43;8.63;;;37.40;1.00;;;;;;5077379;28;20513;-72
2023/09/11 09:40:30;;;;;;;9.60;8.80;;;38.20;1.00;;;;;;5077713;28;20560;-75
2023/09/11 09:42:59;;;;;;;10.17;9.17;;;38.70;1.00;;;;;;5074131;28;20577;-73
2023/09/11 09:45:30;;;;;;;9.43;8.83;;;39.00;1.00;;;;;;5075493;28;20512;-74
2023/09/11 09:48:10;;;;;;;10.20;9.03;;;39.40;1.00;;;;;;5081810;28;20479;-73
2023/09/11 09:50:52;;;;;;;9.47;8.67;;;39.60;1.00;;;;;;5078780;28;20552;-73
2023/09/11 09:53:24;;;;;;;10.30;9.53;;;39.40;1.00;;;;;;5081588;28;20513;-68
2023/09/11 09:55:52;;;;;;;10.00;9.20;;;39.20;1.00;;;;;;5076551;28;20474;-69
2023/09/11 09:58:21;;;;;;;10.00;9.10;;;39.50;1.00;;;;;;5079911;28;20454;-70
2023/09/11 10:00:49;;;;;;;10.53;9.60;;;40.10;1.00;;;;;;5076572;28;20556;-70
2023/09/11 10:03:17;;;;;;;11.83;8.70;;;40.60;1.00;;;;;;5075234;28;20445;-67
2023/09/11 10:05:50;;;;;;;9.63;8.70;;;40.90;1.00;;;;;;5071086;28;20577;-69
2023/09/11 10:08:17;;;;;;;8.70;8.10;;;41.10;1.00;;;;;;5069404;28;20446;-67
2023/09/11 10:10:44;;;;;;;9.47;8.77;;;40.80;1.00;;;;;;5074103;28;20461;-70
2023/09/11 10:13:13;;;;;;;8.97;8.20;;;40.70;1.00;;;;;;5071075;28;20474;-70
2023/09/11 10:15:41;;;;;;;8.33;7.73;;;40.60;1.00;;;;;;5075979;28;20893;-72
2023/09/11 10:18:11;;;;;;;9.73;8.93;;;40.60;1.00;;;;;;5072373;28;20485;-71
2023/09/11 10:20:40;;;;;;;9.40;8.60;;;41.00;1.00;;;;;;5077301;28;20488;-70
2023/09/11 10:23:07;;;;;;;9.07;8.33;;;41.30;1.00;;;;;;5065653;28;20593;-70
2023/09/11 10:25:39;;;;;;;8.80;8.10;;;41.50;1.00;;;;;;5078127;28;20474;-69
2023/09/11 10:28:07;;;;;;;9.30;8.50;;;41.70;1.00;;;;;;5077280;28;20450;-69
2023/09/11 10:30:43;;;;;;;9.63;8.33;;;42.10;1.00;;;;;;5079439;28;20469;-71
2023/09/11 10:33:17;;;;;;;9.40;8.70;;;42.40;1.00;;;;;;5078448;28;20498;-73
2023/09/11 10:35:48;;;;;;;10.07;9.17;;;42.70;1.00;;;;;;5081038;28;20917;-69
2023/09/11 10:38:17;;;;;;;8.80;8.00;;;42.90;1.00;;;;;;5075787;28;20449;-70
2023/09/11 10:40:44;;;;;;;8.97;8.17;;;42.80;1.00;;;;;;5077377;28;20455;-73
2023/09/11 10:43:13;;;;;;;8.33;7.73;;;42.90;1.00;;;;;;5080656;28;20468;-72
2023/09/11 10:45:40;;;;;;;9.30;8.43;;;42.50;1.00;;;;;;5074537;28;20467;-71
2023/09/11 10:48:07;;;;;;;9.10;8.40;;;42.90;1.00;;;;;;5076174;28;21077;-69
2023/09/11 10:50:37;;;;;;;13.50;9.60;;;42.20;1.00;;;;;;5079530;28;20453;-71
2023/09/11 10:53:07;;;;;;;8.53;7.93;;;42.30;1.00;;;;;;5080185;28;20462;-69
2023/09/11 10:55:35;;;;;;;9.80;9.00;;;42.50;1.00;;;;;;5084240;28;20470;-70
2023/09/11 10:58:06;;;;;;;9.90;8.97;;;42.90;1.00;;;;;;5081729;28;20454;-70
2023/09/11 11:00:37;;;;;;;9.30;8.60;;;43.00;1.00;;;;;;5078987;28;20470;-72
2023/09/11 11:03:05;;;;;;;11.50;10.50;;;43.30;1.00;;;;;;5077073;28;20466;-75
2023/09/11 11:05:33;;;;;;;9.60;8.60;;;43.30;1.00;;;;;;5077376;28;20557;-74
2023/09/11 11:08:01;;;;;;;9.97;9.10;;;43.40;1.00;;;;;;5078130;28;20455;-73
2023/09/11 11:10:30;;;;;;;8.80;8.00;;;44.00;1.00;;;;;;5077906;28;20463;-74
2023/09/11 11:13:06;;;;;;;8.73;7.93;;;44.20;1.00;;;;;;5077503;28;20540;-76
2023/09/11 11:15:34;;;;;;;8.90;8.03;;;44.30;1.00;;;;;;5078035;28;20482;-71
2023/09/11 11:18:11;;;;;;;9.83;8.93;;;44.80;1.00;;;;;;5079674;28;20486;-72
2023/09/11 11:20:58;;;;;;;9.93;8.87;;;45.10;1.00;;;;;;5079885;28;20464;-72
2023/09/11 11:23:27;;;;;;;9.90;8.73;;;44.80;1.00;;;;;;5078075;28;20474;-74
2023/09/11 11:25:55;;;;;;;9.27;8.57;;;44.30;1.00;;;;;;5079405;28;20474;-76
2023/09/11 11:28:24;;;;;;;10.83;9.20;;;44.30;1.00;;;;;;5078418;28;20481;-75
2023/09/11 11:30:53;;;;;;;10.50;9.60;;;44.30;1.00;;;;;;5084131;28;20515;-74
2023/09/11 11:33:24;;;;;;;9.17;8.33;;;44.00;1.00;;;;;;5082633;28;20455;-74
2023/09/11 11:35:54;;;;;;;9.13;8.47;;;43.40;1.00;;;;;;5083831;28;20942;-73
2023/09/11 11:38:22;;;;;;;8.97;8.17;;;43.50;1.00;;;;;;5079768;28;21288;-73
2023/09/11 11:40:50;;;;;;;8.93;8.10;;;43.80;1.00;;;;;;5084760;28;20482;-73
2023/09/11 11:43:19;;;;;;;11.63;9.27;;;44.10;1.00;;;;;;5081569;28;20578;-74
2023/09/11 11:45:47;;;;;;;8.83;8.10;;;44.50;1.00;;;;;;5081982;28;21037;-74
2023/09/11 11:48:15;;;;;;;10.13;9.17;;;44.20;1.00;;;;;;5075885;28;20448;-75
2023/09/11 11:50:42;;;;;;;9.73;7.90;;;44.40;1.00;;;;;;5078707;28;20539;-75
2023/09/11 11:53:15;;;;;;;8.47;7.30;;;44.90;1.00;;;;;;5078449;28;20483;-76
2023/09/11 11:55:43;;;;;;;8.50;7.13;;;45.70;1.00;;;;;;5079155;28;20474;-74
2023/09/11 11:58:12;;;;;;;8.50;7.70;;;45.90;1.00;;;;;;5082132;28;20482;-75
2023/09/11 12:00:40;;;;;;;8.37;7.30;;;45.90;1.00;;;;;;5085675;28;20486;-73
2023/09/11 12:03:09;;;;;;;8.33;7.70;;;46.30;1.00;;;;;;5078597;28;20454;-73
2023/09/11 12:05:39;;;;;;;8.30;7.60;;;46.30;1.00;;;;;;5080633;28;20609;-73
2023/09/11 12:08:06;;;;;;;8.50;7.67;;;46.80;1.00;;;;;;5075730;28;20485;-74
2023/09/11 12:10:33;;;;;;;7.73;7.17;;;47.10;1.00;;;;;;5078626;28;20468;-75
2023/09/11 12:13:00;;;;;;;8.43;7.83;;;47.40;1.00;;;;;;5079636;28;20459;-76
2023/09/11 12:15:28;;;;;;;8.83;7.90;;;46.90;1.00;;;;;;5080311;28;20474;-75
2023/09/11 12:17:56;;;;;;;8.80;8.10;;;46.70;1.00;;;;;;5079087;28;20443;-75
2023/09/11 12:20:23;;;;;;;8.23;7.53;;;46.70;1.00;;;;;;5081601;28;20454;-76
2023/09/11 12:22:50;;;;;;;9.17;8.43;;;47.10;1.00;;;;;;5085449;28;20462;-72
2023/09/11 12:25:18;;;;;;;8.80;8.10;;;47.60;1.00;;;;;;5080672;28;22691;-76
2023/09/11 12:27:45;;;;;;;8.97;8.10;;;47.80;1.00;;;;;;5077523;28;20450;-74
2023/09/11 12:30:14;;;;;;;8.80;7.97;;;47.70;1.00;;;;;;5079090;28;21362;-78
2023/09/11 12:32:41;;;;;;;8.60;8.00;;;47.60;1.00;;;;;;5080978;28;20491;-74
2023/09/11 12:35:09;;;;;;;7.77;6.97;;;47.50;1.00;;;;;;5078301;28;20478;-75
2023/09/11 12:37:42;;;;;;;8.73;7.77;;;47.10;1.00;;;;;;5080657;28;20454;-76
2023/09/11 12:40:09;;;;;;;7.67;6.93;;;47.20;1.00;;;;;;5083301;28;20466;-73
2023/09/11 12:42:41;;;;;;;8.17;7.50;;;47.90;1.00;;;;;;5081598;28;20619;-75
2023/09/11 12:45:09;;;;;;;8.77;7.90;;;48.30;1.00;;;;;;5084331;28;20559;-75
2023/09/11 12:47:36;;;;;;;8.30;7.50;;;48.40;1.00;;;;;;5085256;28;20505;-74